Data for 02/14/2013

Time Sea-Level Adjusted Pressure Absolute Pressure Temperature Relative Humidity Dew Point   
(mb) (inHg) (mb) (inHg) (C) (F) (%) (C) (F)
00:05 1020 30.12 849 25.07 0.6 33 59 -6.5 20.2
00:10 1020 30.12 849 25.07 0.6 33 59 -6.6 20.2
00:15 1020 30.12 849 25.07 0.7 33.3 57 -6.8 19.8
00:20 1020 30.12 849 25.07 0.8 33.4 57 -6.8 19.8
00:25 1020 30.12 849 25.07 0.8 33.5 57 -6.8 19.7
00:30 1020 30.12 849 25.07 0.8 33.5 58 -6.6 20.2
00:35 1020 30.12 849 25.07 0.7 33.3 59 -6.3 20.6
00:40 1020 30.12 849 25.07 0.7 33.3 59 -6.5 20.3
00:45 1020 30.12 849 25.07 0.7 33.2 59 -6.5 20.3
00:50 1020 30.12 849 25.07 0.7 33.3 60 -6.3 20.7
00:55 1020 30.12 849 25.07 0.6 33.1 60 -6.3 20.7
01:00 1020 30.12 850 25.1 0.6 33 61 -6.2 20.9
01:05 1020 30.12 849 25.07 0.6 33.1 61 -6.1 21
01:10 1020 30.12 849 25.07 0.5 32.9 61 -6.2 20.8
01:15 1020 30.12 849 25.07 0.5 32.9 61 -6.3 20.7
01:20 1020 30.12 849 25.07 0.4 32.7 61 -6.2 20.8
01:25 1020 30.12 849 25.07 0.4 32.6 61 -6.3 20.7
01:30 1020 30.12 849 25.07 0.3 32.6 62 -6.1 21.1
01:35 1020 30.12 850 25.1 0.2 32.4 63 -6.1 21.1
01:40 1020 30.12 850 25.1 0.2 32.4 63 -6 21.1
01:45 1020 30.12 850 25.1 0.2 32.3 62 -6.2 20.9
01:50 1020 30.12 850 25.1 0.2 32.3 63 -6 21.1
01:55 1021 30.15 850 25.1 0.1 32.2 63 -6 21.1
02:00 1021 30.15 850 25.1 0 32.1 65 -5.9 21.5
02:05 1021 30.15 850 25.1 -0 31.9 66 -5.7 21.7
02:10 1021 30.15 850 25.1 -0.2 31.7 67 -5.6 21.8
02:15 1021 30.15 850 25.1 -0.3 31.5 67 -5.6 21.8
02:20 1021 30.15 850 25.1 -0.2 31.6 66 -5.7 21.7
02:25 1021 30.15 850 25.1 -0.2 31.6 67 -5.6 21.9
02:30 1021 30.15 850 25.1 -0.3 31.5 69 -5.3 22.4
02:35 1021 30.15 850 25.1 -0.4 31.2 72 -4.9 23.1
02:40 1021 30.15 850 25.1 -0.6 30.9 73 -4.9 23.2
02:45 1021 30.15 850 25.1 -0.8 30.6 74 -4.9 23.2
02:50 1021 30.15 850 25.1 -0.8 30.5 74 -4.8 23.3
02:55 1021 30.15 850 25.1 -0.9 30.4 76 -4.7 23.6
03:00 1021 30.15 850 25.1 -1 30.2 75 -4.8 23.3
03:05 1021 30.15 850 25.1 -1 30.1 75 -5 23
03:10 1021 30.15 850 25.1 -1 30.2 74 -5.1 22.8
03:15 1021 30.15 850 25.1 -0.9 30.3 73 -5.2 22.6
03:20 1021 30.15 850 25.1 -0.9 30.4 72 -5.3 22.5
03:25 1021 30.15 850 25.1 -1 30.3 75 -4.8 23.3
03:30 1021 30.15 850 25.1 -1.2 29.9 78 -4.6 23.8
03:35 1021 30.15 850 25.1 -1.2 29.8 75 -5.1 22.8
03:40 1021 30.15 851 25.13 -1 30.1 74 -5.2 22.7
03:45 1021 30.15 851 25.13 -1 30.3 72 -5.4 22.2
03:50 1022 30.18 851 25.13 -0.9 30.4 71 -5.5 22.2
03:55 1022 30.18 851 25.13 -0.8 30.5 69 -5.9 21.4
04:00 1022 30.18 851 25.13 -0.7 30.7 68 -5.9 21.3
04:05 1022 30.18 851 25.13 -0.7 30.8 67 -6 21.2
04:10 1022 30.18 851 25.13 -0.7 30.7 68 -5.8 21.5
04:15 1022 30.18 851 25.13 -0.8 30.6 69 -5.7 21.7
04:20 1022 30.18 851 25.13 -0.9 30.4 70 -5.7 21.8
04:25 1022 30.18 851 25.13 -1 30.3 71 -5.7 21.8
04:30 1022 30.18 852 25.16 -1 30.2 71 -5.6 21.9
04:35 1022 30.18 852 25.16 -1.1 30.1 72 -5.6 22
04:40 1023 30.21 852 25.16 -1.2 29.8 72 -5.6 22
04:45 1023 30.21 852 25.16 -1.4 29.5 74 -5.5 22.1
04:50 1023 30.21 852 25.16 -1.5 29.3 74 -5.5 22.1
04:55 1023 30.21 852 25.16 -1.6 29.1 75 -5.5 22.1
05:00 1023 30.21 852 25.16 -1.7 29 74 -5.6 21.9
05:05 1023 30.21 852 25.16 -1.8 28.7 75 -5.7 21.7
05:10 1023 30.21 852 25.16 -1.9 28.5 75 -5.8 21.5
05:15 1023 30.21 852 25.16 -2 28.3 75 -5.9 21.5
05:20 1023 30.21 852 25.16 -2.2 28.1 76 -5.8 21.5
05:25 1023 30.21 852 25.16 -2.3 27.9 75 -6.1 20.9
05:30 1023 30.21 852 25.16 -2.4 27.8 75 -6.2 20.9
05:35 1023 30.21 852 25.16 -2.4 27.6 76 -6.1 21
05:40 1023 30.21 852 25.16 -2.5 27.6 76 -6.1 20.9
05:45 1023 30.21 852 25.16 -2.6 27.4 76 -6.3 20.7
05:50 1023 30.21 852 25.16 -2.6 27.2 73 -6.8 19.7
05:55 1023 30.21 852 25.16 -2.7 27.1 74 -6.8 19.8
06:00 1023 30.21 852 25.16 -2.9 26.8 77 -6.3 20.7
06:05 1023 30.21 852 25.16 -3.1 26.4 77 -6.6 20.1
06:10 1023 30.21 852 25.16 -3.3 26.2 78 -6.6 20.1
06:15 1023 30.21 853 25.19 -3.4 25.9 76 -7 19.4
06:20 1023 30.21 853 25.19 -3.5 25.7 76 -7.1 19.1
06:25 1023 30.21 853 25.19 -3.5 25.7 76 -7.2 19.1
06:30 1023 30.21 853 25.19 -3.7 25.3 78 -7 19.5
06:35 1023 30.21 853 25.19 -4.1 24.6 80 -7.1 19.2
06:40 1023 30.21 853 25.19 -4.2 24.5 79 -7.3 18.8
06:45 1024 30.24 853 25.19 -4.1 24.6 78 -7.4 18.7
06:50 1024 30.24 853 25.19 -4 24.9 78 -7.3 18.9
06:55 1024 30.24 853 25.19 -3.9 25 77 -7.4 18.7
07:00 1024 30.24 853 25.19 -3.8 25.2 77 -7.3 18.8
07:05 1024 30.24 853 25.19 -3.7 25.3 76 -7.3 18.8
07:10 1024 30.24 853 25.19 -3.8 25.2 76 -7.4 18.7
07:15 1024 30.24 853 25.19 -3.8 25.1 76 -7.4 18.7
07:20 1024 30.24 853 25.19 -3.9 25 76 -7.5 18.6
07:25 1024 30.24 853 25.19 -3.9 25 76 -7.5 18.5
07:30 1024 30.24 853 25.19 -3.8 25.2 72 -8.1 17.4
07:35 1024 30.24 853 25.19 -3.8 25.2 70 -8.4 16.9
07:40 1024 30.24 854 25.22 -3.9 25 71 -8.5 16.7
07:45 1024 30.24 854 25.22 -4.1 24.7 71 -8.6 16.4
07:50 1025 30.27 854 25.22 -4.2 24.4 70 -8.8 16.1
07:55 1025 30.27 854 25.22 -4.3 24.3 72 -8.7 16.4
08:00 1025 30.27 854 25.22 -4.3 24.3 71 -8.7 16.4
08:05 1025 30.27 854 25.22 -4.2 24.4 72 -8.5 16.7
08:10 1025 30.27 854 25.22 -4.2 24.4 75 -8.1 17.5
08:15 1025 30.27 854 25.22 -4.2 24.4 75 -7.9 17.7
08:20 1025 30.27 854 25.22 -4.3 24.3 77 -7.8 18
08:25 1025 30.27 854 25.22 -4.3 24.3 77 -7.7 18.1
08:30 1025 30.27 854 25.22 -4.3 24.3 77 -7.7 18.1
08:35 1025 30.27 854 25.22 -4.4 24.2 77 -7.7 18.1
08:40 1025 30.27 854 25.22 -4.5 23.9 78 -7.8 18
08:45 1025 30.27 854 25.22 -4.5 23.8 79 -7.6 18.2
08:50 1025 30.27 854 25.22 -4.6 23.6 80 -7.6 18.2
08:55 1025 30.27 854 25.22 -4.8 23.4 81 -7.6 18.4
09:00 1025 30.27 855 25.25 -4.8 23.5 81 -7.6 18.3
09:05 1025 30.27 855 25.25 -4.7 23.5 81 -7.6 18.3
09:10 1025 30.27 855 25.25 -4.9 23.2 81 -7.6 18.4
09:15 1025 30.27 855 25.25 -4.8 23.4 81 -7.6 18.3
09:20 1025 30.27 855 25.25 -4.7 23.5 80 -7.7 18.2
09:25 1025 30.27 855 25.25 -4.6 23.7 80 -7.5 18.4
09:30 1025 30.27 855 25.25 -4.6 23.8 80 -7.5 18.4
09:35 1025 30.27 855 25.25 -4.7 23.6 81 -7.5 18.5
09:40 1026 30.3 855 25.25 -4.6 23.6 81 -7.4 18.6
09:45 1026 30.3 855 25.25 -4.6 23.7 80 -7.5 18.4
09:50 1026 30.3 855 25.25 -4.5 23.9 81 -7.4 18.7
09:55 1026 30.3 855 25.25 -4.4 24 80 -7.4 18.6
10:00 1026 30.3 855 25.25 -4.6 23.7 80 -7.5 18.6
10:05 1026 30.3 855 25.25 -4.5 23.8 81 -7.4 18.7
10:10 1026 30.3 855 25.25 -4.4 24.1 81 -7.2 19
10:15 1026 30.3 855 25.25 -4.3 24.3 79 -7.5 18.6
10:20 1026 30.3 855 25.25 -4.2 24.4 79 -7.3 18.9
10:25 1026 30.3 855 25.25 -4.2 24.4 80 -7.1 19.2
10:30 1025 30.27 855 25.25 -4.5 23.8 82 -7.2 19.1
10:35 1026 30.3 855 25.25 -4.8 23.4 82 -7.4 18.7
10:40 1026 30.3 855 25.25 -5 23.1 83 -7.4 18.7
10:45 1026 30.3 855 25.25 -4.8 23.4 82 -7.4 18.7
10:50 1026 30.3 855 25.25 -4.5 23.9 81 -7.3 18.8
10:55 1026 30.3 855 25.25 -4.4 24.2 80 -7.3 18.8
11:00 1026 30.3 855 25.25 -4.3 24.2 80 -7.2 19
11:05 1026 30.3 855 25.25 -4.1 24.6 81 -7 19.5
11:10 1026 30.3 855 25.25 -4 24.9 79 -7.1 19.2
11:15 1026 30.3 855 25.25 -3.7 25.4 78 -6.9 19.5
11:20 1026 30.3 855 25.25 -3.4 25.9 76 -7 19.4
11:25 1026 30.3 855 25.25 -3.2 26.3 74 -7.1 19.3
11:30 1026 30.3 855 25.25 -3.2 26.2 75 -7 19.4
11:35 1025 30.27 855 25.25 -3.2 26.2 74 -7.2 19
11:40 1025 30.27 855 25.25 -3.4 25.9 76 -7 19.4
11:45 1025 30.27 855 25.25 -3.5 25.7 77 -6.9 19.6
11:50 1025 30.27 855 25.25 -3.6 25.6 79 -6.7 19.9
11:55 1025 30.27 855 25.25 -3.1 26.3 74 -7.1 19.3
12:00 1025 30.27 855 25.25 -2.9 26.7 75 -6.8 19.8
12:05 1025 30.27 855 25.25 -2.9 26.7 75 -6.8 19.7
12:10 1025 30.27 855 25.25 -3 26.6 76 -6.7 19.9
12:15 1025 30.27 855 25.25 -2.9 26.9 76 -6.6 20.2
12:20 1025 30.27 855 25.25 -2.9 26.9 75 -6.6 20
12:25 1025 30.27 855 25.25 -2.5 27.5 73 -6.6 20
12:30 1025 30.27 855 25.25 -2.3 27.8 75 -6.1 21
12:35 1025 30.27 855 25.25 -2.4 27.6 74 -6.5 20.3
12:40 1025 30.27 855 25.25 -2.5 27.5 74 -6.6 20.1
12:45 1025 30.27 855 25.25 -2.4 27.8 73 -6.6 20.2
12:50 1025 30.27 855 25.25 -2.2 28.1 73 -6.4 20.4
12:55 1025 30.27 855 25.25 -1.8 28.8 70 -6.6 20.1
13:00 1025 30.27 854 25.22 -1.7 28.9 72 -6.1 21.1
13:05 1025 30.27 854 25.22 -1.8 28.8 71 -6.3 20.7
13:10 1025 30.27 854 25.22 -1.8 28.9 72 -6.1 21
13:15 1025 30.27 854 25.22 -1.5 29.3 68 -6.7 20
13:20 1025 30.27 854 25.22 -1.4 29.5 69 -6.4 20.5
13:25 1025 30.27 854 25.22 -1.9 28.6 72 -6.3 20.7
13:30 1025 30.27 854 25.22 -1.6 29.1 65 -7.3 18.9
13:35 1025 30.27 854 25.22 -1.6 29 68 -6.8 19.7
13:40 1025 30.27 854 25.22 -1.2 29.8 65 -6.9 19.5
13:45 1025 30.27 854 25.22 -1.2 29.9 67 -6.6 20.2
13:50 1025 30.27 854 25.22 -0.8 30.6 63 -6.9 19.6
13:55 1025 30.27 854 25.22 -0.6 30.9 64 -6.5 20.3
14:00 1025 30.27 854 25.22 -0.6 31 66 -6.1 21.1
14:05 1025 30.27 854 25.22 -0.2 31.6 61 -6.8 19.8
14:10 1025 30.27 854 25.22 0.1 32.2 60 -6.7 20
14:15 1025 30.27 854 25.22 -0.2 31.7 63 -6.5 20.4
14:20 1025 30.27 854 25.22 -1 30.2 65 -6.7 19.9
14:25 1024 30.24 854 25.22 -1.4 29.5 66 -7 19.5
14:30 1024 30.24 854 25.22 -0.5 31 63 -6.8 19.8
14:35 1024 30.24 854 25.22 0.2 32.4 60 -6.6 20.2
14:40 1024 30.24 853 25.19 0.7 33.3 59 -6.4 20.4
14:45 1024 30.24 853 25.19 0.6 33 59 -6.6 20.1
14:50 1024 30.24 853 25.19 -0.2 31.7 59 -7.3 18.9
14:55 1024 30.24 853 25.19 0.6 33 58 -6.7 19.9
15:00 1024 30.24 853 25.19 0.9 33.6 55 -7.2 19
15:05 1024 30.24 853 25.19 0.8 33.5 54 -7.3 18.8
15:10 1024 30.24 853 25.19 0 32 60 -6.8 19.7
15:15 1024 30.24 853 25.19 -0.7 30.8 58 -7.9 17.7
15:20 1024 30.24 853 25.19 -0.6 31 57 -8.2 17.3
15:25 1024 30.24 853 25.19 -0.2 31.6 55 -8.3 17.1
15:30 1024 30.24 853 25.19 0.3 32.5 55 -7.7 18.1
15:35 1024 30.24 853 25.19 0.2 32.4 53 -8.4 16.9
15:40 1024 30.24 853 25.19 0.4 32.8 53 -8.2 17.3
15:45 1024 30.24 853 25.19 0.8 33.5 54 -7.5 18.4
15:50 1024 30.24 853 25.19 1.2 34.1 51 -7.8 17.9
15:55 1024 30.24 853 25.19 1.2 34.2 53 -7.3 18.8
16:00 1024 30.24 853 25.19 1.3 34.3 52 -7.7 18.2
16:05 1024 30.24 853 25.19 1.2 34.2 52 -7.5 18.5
16:10 1024 30.24 853 25.19 1.2 34.2 54 -7 19.4
16:15 1024 30.24 853 25.19 1.2 34.1 47 -8.8 16.1
16:20 1024 30.24 853 25.19 1.2 34.1 48 -8.7 16.3
16:25 1024 30.24 853 25.19 1 33.9 48 -8.9 16
16:30 1024 30.24 853 25.19 0.5 33 49 -9 15.7
16:35 1024 30.24 853 25.19 0.9 33.6 48 -9 15.8
16:40 1024 30.24 853 25.19 1 33.8 48 -8.9 16
16:45 1024 30.24 853 25.19 0.9 33.5 49 -8.6 16.6
16:50 1024 30.24 853 25.19 0.6 33.1 50 -8.6 16.6
16:55 1024 30.24 853 25.19 0.6 33.2 51 -8.5 16.7
17:00 1024 30.24 853 25.19 0.6 33.1 49 -8.8 16.1
17:05 1024 30.24 853 25.19 0.7 33.2 49 -9 15.8
17:10 1024 30.24 853 25.19 0.6 33.1 48 -9.2 15.4
17:15 1024 30.24 853 25.19 0.3 32.6 49 -9.2 15.4
17:20 1024 30.24 853 25.19 0.2 32.3 49 -9.3 15.2
17:25 1024 30.24 853 25.19 0.3 32.6 49 -9.1 15.6
17:30 1024 30.24 853 25.19 0.2 32.4 51 -8.8 16.1
17:35 1024 30.24 853 25.19 0 32 51 -9 15.8
17:40 1024 30.24 853 25.19 0.2 32.3 51 -8.8 16.1
17:45 1024 30.24 853 25.19 0.1 32.2 52 -8.6 16.6
17:50 1024 30.24 853 25.19 -0 32 53 -8.5 16.7
17:55 1024 30.24 853 25.19 0.2 32.3 53 -8.4 16.9
18:00 1024 30.24 853 25.19 0.2 32.4 51 -8.8 16.2
18:05 1024 30.24 853 25.19 0.2 32.3 52 -8.6 16.5
18:10 1024 30.24 853 25.19 0.2 32.4 52 -8.5 16.8
18:15 1024 30.24 853 25.19 0.2 32.4 52 -8.5 16.7
18:20 1024 30.24 853 25.19 0.2 32.4 50 -8.9 16
18:25 1024 30.24 853 25.19 0.2 32.4 51 -8.8 16.1
18:30 1024 30.24 853 25.19 0.3 32.5 50 -9 15.8
18:35 1024 30.24 853 25.19 0.1 32.2 51 -8.9 16
18:40 1024 30.24 853 25.19 0.1 32.1 50 -9.1 15.7
18:45 1024 30.24 853 25.19 -0.3 31.5 57 -7.7 18.1
18:50 1024 30.24 853 25.19 -0.8 30.6 58 -8.1 17.4
18:55 1024 30.24 853 25.19 -0.9 30.4 60 -7.8 18
19:00 1024 30.24 853 25.19 -1.1 30 60 -7.9 17.7
19:05 1024 30.24 853 25.19 -1.3 29.7 61 -7.9 17.8
19:10 1024 30.24 853 25.19 -1.3 29.7 63 -7.4 18.6
19:15 1024 30.24 853 25.19 -1.3 29.7 63 -7.5 18.5
19:20 1024 30.24 853 25.19 -1.3 29.7 62 -7.7 18.2
19:25 1024 30.24 853 25.19 -1.3 29.6 62 -7.6 18.3
19:30 1024 30.24 853 25.19 -1.2 29.8 61 -7.9 17.8
19:35 1024 30.24 854 25.22 -1.1 30 61 -7.8 18
19:40 1024 30.24 854 25.22 -1 30.2 59 -8 17.6
19:45 1024 30.24 854 25.22 -0.9 30.4 59 -8 17.6
19:50 1024 30.24 854 25.22 -0.8 30.6 58 -8 17.7
19:55 1025 30.27 854 25.22 -0.8 30.6 58 -8 17.7
20:00 1025 30.27 854 25.22 -0.8 30.5 59 -7.9 17.8
20:05 1025 30.27 854 25.22 -0.9 30.4 57 -8.3 17.1
20:10 1025 30.27 854 25.22 -0.9 30.5 57 -8.3 17
20:15 1025 30.27 854 25.22 -0.9 30.4 58 -8.1 17.5
20:20 1025 30.27 854 25.22 -0.9 30.4 60 -7.7 18.1
20:25 1024 30.24 854 25.22 -1 30.2 62 -7.3 18.8
20:30 1025 30.27 854 25.22 -1 30.1 62 -7.4 18.7
20:35 1025 30.27 854 25.22 -0.9 30.3 62 -7.2 19
20:40 1025 30.27 854 25.22 -0.9 30.5 63 -7 19.4
20:45 1025 30.27 854 25.22 -0.7 30.7 61 -7.3 18.8
20:50 1025 30.27 854 25.22 -0.5 31.2 59 -7.5 18.5
20:55 1025 30.27 854 25.22 -0.3 31.5 58 -7.5 18.5
21:00 1025 30.27 854 25.22 -0.2 31.6 59 -7.4 18.7
21:05 1025 30.27 854 25.22 -0.2 31.7 57 -7.7 18.2
21:10 1025 30.27 854 25.22 -0.1 31.8 57 -7.7 18.2
21:15 1025 30.27 854 25.22 -0 32 56 -7.9 17.8
21:20 1025 30.27 854 25.22 0 32 56 -7.7 18.2
21:25 1025 30.27 854 25.22 -0.1 31.9 57 -7.5 18.5
21:30 1025 30.27 854 25.22 -0.1 31.8 57 -7.6 18.3
21:35 1025 30.27 854 25.22 -0.1 31.8 57 -7.6 18.3
21:40 1025 30.27 854 25.22 -0.1 31.9 56 -7.8 18
21:45 1025 30.27 854 25.22 -0.1 31.8 56 -8 17.7
21:50 1025 30.27 854 25.22 -0.1 31.8 55 -8.2 17.3
21:55 1025 30.27 854 25.22 -0.1 31.9 55 -8 17.7
22:00 1025 30.27 854 25.22 -0.1 31.8 55 -8.1 17.4
22:05 1025 30.27 854 25.22 -0.1 31.8 55 -8.1 17.5
22:10 1025 30.27 854 25.22 -0.1 31.8 55 -8.1 17.4
22:15 1025 30.27 854 25.22 -0.1 31.8 56 -7.9 17.8
22:20 1025 30.27 854 25.22 -0.1 31.8 56 -8 17.6
22:25 1025 30.27 854 25.22 -0.1 31.8 55 -8.1 17.4
22:30 1025 30.27 854 25.22 -0.1 31.8 56 -7.9 17.7
22:35 1025 30.27 854 25.22 -0.1 31.7 56 -8 17.6
22:40 1025 30.27 854 25.22 -0.2 31.7 56 -7.8 17.9
22:45 1025 30.27 854 25.22 -0.2 31.7 57 -7.8 18
22:50 1025 30.27 854 25.22 -0.1 31.8 56 -7.9 17.8
22:55 1025 30.27 854 25.22 -0.2 31.7 55 -8.2 17.3
23:00 1025 30.27 854 25.22 -0.1 31.7 56 -7.8 18
23:05 1025 30.27 854 25.22 -0.1 31.7 55 -8.1 17.4
23:10 1025 30.27 854 25.22 -0.1 31.8 56 -7.9 17.9
23:15 1025 30.27 854 25.22 -0.1 31.8 55 -8 17.5
23:20 1025 30.27 855 25.25 -0.1 31.9 55 -8 17.6
23:25 1025 30.27 855 25.25 -0 31.9 55 -8.1 17.4
23:30 1025 30.27 855 25.25 -0 31.9 55 -8 17.5
23:35 1025 30.27 855 25.25 0 32 55 -8 17.6
23:40 1025 30.27 855 25.25 -0 31.9 56 -7.9 17.8
23:45 1025 30.27 855 25.25 -0 31.9 56 -7.7 18.1
23:50 1026 30.3 855 25.25 -0 31.9 56 -7.9 17.9
23:55 1026 30.3 855 25.25 -0 31.9 55 -8 17.6
24:00 1026 30.3 855 25.25 0 32 55 -7.9 17.8